Time;durP1;ratioP1;P1;durP2;ratioP2;P2;SDS_P1;SDS_P2;PMS_P1;PMS_P2;Temp;Humidity;BMP_temperature;BMP_pressure;BME280_temperature;BME280_humidity;BME280_pressure;Samples;Min_cycle;Max_cycle;Signal;HPM_P1;HPM_P2
2022/02/08 00:00:22;;;;;;;21.73;14.20;;;;;;;1.91;77.02;98961.27;1706789;83;21101;-76
2022/02/08 00:02:52;;;;;;;20.43;13.65;;;;;;;1.95;77.02;98962.75;1697441;83;21006;-76
2022/02/08 00:05:19;;;;;;;18.10;13.18;;;;;;;1.97;76.97;98960.88;1693379;83;21527;-76
2022/02/08 00:07:50;;;;;;;20.95;13.60;;;;;;;1.97;76.92;98961.34;1693897;83;21093;-75
2022/02/08 00:10:16;;;;;;;16.97;12.70;;;;;;;1.96;76.86;98955.77;1708554;83;21061;-77
2022/02/08 00:12:42;;;;;;;18.42;13.22;;;;;;;1.93;76.82;98955.95;1703235;83;20948;-76
2022/02/08 00:15:09;;;;;;;18.12;13.10;;;;;;;1.92;76.81;98963.41;1715855;83;20988;-76
2022/02/08 00:17:36;;;;;;;18.75;13.80;;;;;;;1.91;76.80;98966.94;1688642;83;21061;-77
2022/02/08 00:20:06;;;;;;;20.05;13.25;;;;;;;1.88;76.80;98967.98;1676994;84;22263;-76
2022/02/08 00:22:35;;;;;;;17.87;13.83;;;;;;;1.88;76.82;98972.36;1684076;84;20952;-77
2022/02/08 00:25:02;;;;;;;17.62;13.30;;;;;;;1.86;76.82;98973.77;1691110;83;21026;-77
2022/02/08 00:27:29;;;;;;;17.65;12.70;;;;;;;1.86;76.80;98976.38;1688353;84;21494;-77
2022/02/08 00:29:56;;;;;;;17.32;12.25;;;;;;;1.84;76.82;98969.14;1688027;84;21131;-77
2022/02/08 00:32:22;;;;;;;18.65;13.28;;;;;;;1.84;76.77;98970.91;1642423;85;22833;-77
2022/02/08 00:34:48;;;;;;;18.55;13.65;;;;;;;1.82;76.77;98974.06;1682851;85;21473;-76
2022/02/08 00:37:15;;;;;;;17.77;13.15;;;;;;;1.80;76.79;98978.07;1693211;83;21012;-77
2022/02/08 00:39:43;;;;;;;17.42;13.03;;;;;;;1.80;76.77;98978.53;1677936;84;20977;-76
2022/02/08 00:42:11;;;;;;;17.27;12.78;;;;;;;1.77;76.80;98979.58;1692944;84;21023;-77
2022/02/08 00:44:46;;;;;;;19.85;14.65;;;;;;;1.75;76.84;98981.92;1698609;83;21832;-77
2022/02/08 00:47:21;;;;;;;19.27;14.35;;;;;;;1.74;76.88;98978.49;1690070;84;21019;-77
2022/02/08 00:49:43;;;;;;;22.07;14.73;;;;;;;1.76;76.91;98987.50;1691806;84;21372;-77
2022/02/08 00:52:16;;;;;;;21.23;14.28;;;;;;;1.78;76.93;98992.12;1691893;84;20992;-76
2022/02/08 00:54:45;;;;;;;22.58;14.47;;;;;;;1.78;76.92;98997.34;1687032;84;21363;-77
2022/02/08 00:57:11;;;;;;;19.67;14.43;;;;;;;1.78;76.90;98999.94;1683281;84;21443;-77
2022/02/08 00:59:39;;;;;;;21.75;14.68;;;;;;;1.79;76.92;98999.00;1673737;84;21056;-77
2022/02/08 01:02:06;;;;;;;21.60;15.58;;;;;;;1.80;76.95;99003.27;1686654;84;21059;-76
2022/02/08 01:04:34;;;;;;;22.70;15.35;;;;;;;1.81;76.92;99002.33;1687019;84;21056;-77
2022/02/08 01:07:02;;;;;;;21.85;15.93;;;;;;;1.81;76.91;99006.23;1671704;84;21158;-76
2022/02/08 01:09:45;;;;;;;23.92;16.12;;;;;;;1.82;76.88;99010.50;1681358;84;21475;-76
2022/02/08 01:12:05;;;;;;;24.72;16.50;;;;;;;1.83;76.88;99017.37;1669032;84;21000;-76
2022/02/08 01:14:37;;;;;;;22.10;16.30;;;;;;;1.83;76.89;99016.08;1689956;84;21458;-76
2022/02/08 01:17:00;;;;;;;21.87;15.03;;;;;;;1.82;76.92;99017.02;1662497;84;21010;-77
2022/02/08 01:19:27;;;;;;;20.08;16.30;;;;;;;1.83;76.94;99018.68;1695570;84;21050;-76
2022/02/08 01:21:53;;;;;;;23.12;16.62;;;;;;;1.80;76.97;99017.59;1696271;83;22500;-76
2022/02/08 01:24:20;;;;;;;25.40;17.07;;;;;;;1.79;77.01;99021.12;1694099;84;21023;-77
2022/02/08 01:26:53;;;;;;;26.40;17.82;;;;;;;1.78;77.05;99022.06;1687291;83;21060;-76
2022/02/08 01:29:24;;;;;;;23.77;16.25;;;;;;;1.77;77.12;99017.80;1687208;84;21028;-76
2022/02/08 01:31:48;;;;;;;21.95;16.67;;;;;;;1.75;77.15;99019.67;1693935;83;21091;-76
2022/02/08 01:34:37;;;;;;;24.30;17.65;;;;;;;1.75;77.23;99020.50;1692460;84;21911;-76
2022/02/08 01:39:38;;;;;;;23.42;17.00;;;;;;;1.72;77.33;99018.91;1669694;84;21138;-77
2022/02/08 01:43:23;;;;;;;22.70;16.70;;;;;;;1.71;77.35;99025.05;1688697;84;21087;-77
2022/02/08 01:44:44;;;;;;;22.17;16.60;;;;;;;1.69;77.39;99025.63;1657812;84;21072;-77
2022/02/08 01:47:14;;;;;;;25.30;17.17;;;;;;;1.69;77.43;99037.80;1682086;84;21825;-77
2022/02/08 01:49:56;;;;;;;22.42;15.90;;;;;;;1.66;77.49;99043.22;1670606;84;20976;-77
2022/02/08 01:52:06;;;;;;;22.55;16.10;;;;;;;1.65;77.57;99054.56;1686842;84;21001;-76
2022/02/08 01:54:33;;;;;;;21.55;15.88;;;;;;;1.63;77.63;99055.94;1680165;84;20957;-77
2022/02/08 01:57:00;;;;;;;19.12;15.38;;;;;;;1.62;77.74;99058.64;1658030;85;21490;-76
2022/02/08 01:59:27;;;;;;;20.82;15.60;;;;;;;1.60;77.77;99062.65;1669389;84;21763;-76
2022/02/08 02:01:54;;;;;;;19.10;14.93;;;;;;;1.59;77.85;99064.05;1689097;84;20925;-77
2022/02/08 02:04:21;;;;;;;21.97;15.55;;;;;;;1.53;77.92;99070.47;1709312;83;21010;-76
2022/02/08 02:06:49;;;;;;;19.30;14.73;;;;;;;1.51;77.99;99073.64;1674641;84;21019;-76
2022/02/08 02:09:17;;;;;;;18.80;14.53;;;;;;;1.48;78.11;99081.65;1679383;84;21743;-76
2022/02/08 02:11:44;;;;;;;20.10;15.60;;;;;;;1.46;78.20;99086.13;1692954;84;22681;-76
2022/02/08 02:14:11;;;;;;;20.57;15.55;;;;;;;1.43;78.30;99086.29;1689110;83;21069;-76
2022/02/08 02:16:56;;;;;;;20.10;15.85;;;;;;;1.43;78.39;99090.19;1707925;83;21024;-76
2022/02/08 02:19:14;;;;;;;20.57;15.45;;;;;;;1.42;78.46;99095.03;1677801;84;21064;-77
2022/02/08 02:21:41;;;;;;;20.17;15.85;;;;;;;1.42;78.57;99097.16;1691418;84;21000;-77
2022/02/08 02:24:07;;;;;;;20.00;14.78;;;;;;;1.41;78.61;99108.50;1668469;85;22198;-76
2022/02/08 02:26:34;;;;;;;19.77;15.43;;;;;;;1.43;78.68;99109.70;1691015;84;21008;-77
2022/02/08 02:29:01;;;;;;;20.80;15.13;;;;;;;1.43;78.71;99111.84;1691709;84;21451;-76
2022/02/08 02:31:28;;;;;;;19.67;15.72;;;;;;;1.44;78.79;99112.67;1689111;83;21227;-77
2022/02/08 02:33:55;;;;;;;22.95;17.20;;;;;;;1.42;78.85;99115.84;1677541;85;20964;-77
2022/02/08 02:36:21;;;;;;;22.02;16.77;;;;;;;1.40;78.90;99118.55;1664697;85;22212;-77
2022/02/08 02:38:48;;;;;;;20.52;16.23;;;;;;;1.40;78.96;99117.24;1710556;82;21009;-76
2022/02/08 02:41:17;;;;;;;21.62;16.27;;;;;;;1.42;79.02;99118.44;1710201;83;20991;-76
2022/02/08 02:43:45;;;;;;;20.95;16.75;;;;;;;1.44;79.01;99117.87;1680134;85;20969;-79
2022/02/08 02:46:13;;;;;;;22.50;17.02;;;;;;;1.46;79.04;99122.55;1646364;85;20975;-77
2022/02/08 02:48:40;;;;;;;24.70;18.52;;;;;;;1.46;79.04;99130.35;1637183;85;21818;-78
2022/02/08 02:51:09;;;;;;;27.25;19.90;;;;;;;1.44;79.04;99131.72;1693770;83;21031;-76
2022/02/08 02:53:37;;;;;;;24.77;20.20;;;;;;;1.46;79.05;99136.85;1685991;84;20985;-78
2022/02/08 02:56:06;;;;;;;22.35;16.75;;;;;;;1.47;79.11;99142.89;1712566;83;20983;-76
2022/02/08 02:58:36;;;;;;;24.32;17.17;;;;;;;1.47;79.14;99145.03;1694233;83;20974;-76
2022/02/08 03:03:55;;;;;;;21.90;16.73;;;;;;;1.47;79.16;99145.03;1683023;84;21044;-76
2022/02/08 03:17:40;;;;;;;22.30;15.43;;;;;;;1.48;79.24;99162.31;1685507;83;21003;-77
2022/02/08 03:20:01;;;;;;;19.62;14.45;;;;;;;1.46;79.24;99167.24;1674402;84;20989;-77
2022/02/08 03:22:28;;;;;;;22.27;16.77;;;;;;;1.44;79.31;99172.52;1717620;83;21027;-78
2022/02/08 03:24:55;;;;;;;29.57;21.52;;;;;;;1.43;79.38;99172.14;1680502;84;20988;-77
2022/02/08 03:27:23;;;;;;;35.00;26.00;;;;;;;1.43;79.42;99178.19;1675845;84;21803;-77
2022/02/08 03:29:50;;;;;;;27.62;20.45;;;;;;;1.43;79.44;99177.35;1700066;83;21009;-76
2022/02/08 03:32:19;;;;;;;33.00;25.10;;;;;;;1.44;79.45;99182.45;1702705;83;21046;-77
2022/02/08 03:34:46;;;;;;;30.23;23.38;;;;;;;1.44;79.45;99181.16;1697518;83;21030;-77
2022/02/08 03:37:13;;;;;;;28.47;20.82;;;;;;;1.42;79.48;99185.63;1676702;85;20969;-77
2022/02/08 03:39:42;;;;;;;20.65;16.50;;;;;;;1.43;79.53;99192.96;1698174;83;21742;-77
2022/02/08 03:42:23;;;;;;;22.98;18.00;;;;;;;1.41;79.53;99192.22;1696689;84;20912;-76
2022/02/08 03:44:46;;;;;;;22.93;16.80;;;;;;;1.40;79.54;99207.47;1680045;84;20996;-76
2022/02/08 03:47:14;;;;;;;19.57;15.25;;;;;;;1.40;79.57;99207.47;1690196;84;21487;-77
2022/02/08 03:49:41;;;;;;;22.00;16.42;;;;;;;1.40;79.61;99212.20;1696964;84;20964;-77
2022/02/08 03:52:08;;;;;;;19.30;15.05;;;;;;;1.39;79.63;99213.60;1669156;84;22312;-76
2022/02/08 03:54:36;;;;;;;22.32;16.75;;;;;;;1.37;79.65;99212.40;1686607;84;21015;-77
2022/02/08 03:57:07;;;;;;;21.12;16.25;;;;;;;1.36;79.65;99221.60;1693895;84;20952;-76
2022/02/08 03:59:33;;;;;;;21.17;15.85;;;;;;;1.34;79.66;99226.87;1695135;84;20979;-76
2022/02/08 04:07:17;;;;;;;33.90;24.63;;;;;;;1.33;79.71;99238.20;1670533;84;20885;-75
2022/02/08 04:09:38;;;;;;;24.02;18.95;;;;;;;1.32;79.74;99236.53;1678799;84;21004;-75
2022/02/08 04:12:13;;;;;;;22.13;17.45;;;;;;;1.33;79.73;99245.17;1694092;84;20980;-76
2022/02/08 04:15:04;;;;;;;26.40;21.20;;;;;;;1.31;79.71;99246.57;1695315;83;20996;-77
2022/02/08 04:17:30;;;;;;;26.70;20.05;;;;;;;1.28;79.73;99251.97;1684692;84;22679;-76
2022/02/08 04:20:03;;;;;;;23.10;18.75;;;;;;;1.27;79.72;99254.66;1667085;84;21051;-76
2022/02/08 04:33:52;;;;;;;20.40;15.93;;;;;;;1.19;79.80;99272.48;1683568;84;21051;-76
2022/02/08 04:36:04;;;;;;;21.52;17.67;;;;;;;1.15;79.83;99276.53;1698261;83;20974;-75
2022/02/08 04:41:00;;;;;;;23.57;17.35;;;;;;;1.10;79.88;99291.59;1711045;83;21005;-76
2022/02/08 04:43:38;;;;;;;19.92;16.67;;;;;;;1.07;79.92;99293.54;1712965;83;21792;-76
2022/02/08 04:46:00;;;;;;;21.90;17.52;;;;;;;1.06;79.97;99300.50;1688686;83;21521;-76
2022/02/08 04:49:07;;;;;;;21.07;16.57;;;;;;;1.06;79.99;99310.04;1703869;83;21000;-76
2022/02/08 04:51:10;;;;;;;18.92;15.28;;;;;;;1.06;80.02;99313.50;1693882;83;21096;-77
2022/02/08 04:53:33;;;;;;;21.50;17.20;;;;;;;1.05;80.04;99316.16;1714651;83;20958;-77
2022/02/08 04:56:20;;;;;;;23.15;17.98;;;;;;;1.04;80.08;99324.43;1720184;82;22029;-76
2022/02/08 04:58:47;;;;;;;22.60;18.37;;;;;;;1.01;80.06;99322.02;1722515;82;20972;-77
2022/02/08 05:41:52;;;;;;;25.00;21.48;;;;;;;0.84;80.82;99400.11;1706696;83;21007;-83
2022/02/08 05:44:29;;;;;;;25.32;21.07;;;;;;;0.82;80.87;99399.36;1682272;84;21474;-78
2022/02/08 05:46:50;;;;;;;26.77;22.15;;;;;;;0.81;80.93;99411.52;1695039;84;21079;-84
2022/02/08 05:49:24;;;;;;;26.85;21.65;;;;;;;0.81;80.98;99411.98;1706649;84;21869;-81
2022/02/08 05:51:58;;;;;;;27.20;21.97;;;;;;;0.82;81.03;99414.95;1695219;82;21506;-79
2022/02/08 05:54:12;;;;;;;26.65;22.42;;;;;;;0.82;81.04;99413.20;1695265;84;20928;-80
2022/02/08 05:56:39;;;;;;;26.57;21.52;;;;;;;0.82;81.07;99417.56;1698771;83;21045;-79
2022/02/08 05:59:09;;;;;;;28.23;22.62;;;;;;;0.82;81.08;99410.59;1685868;84;21418;-85
2022/02/08 06:01:37;;;;;;;24.52;21.30;;;;;;;0.81;81.08;99424.98;1685409;84;21745;-82
2022/02/08 06:04:10;;;;;;;27.00;22.48;;;;;;;0.81;81.13;99421.08;1684847;84;20993;-76
2022/02/08 06:06:37;;;;;;;26.27;21.15;;;;;;;0.83;81.19;99423.97;1693531;83;21052;-78
2022/02/08 06:09:04;;;;;;;24.40;20.88;;;;;;;0.84;81.20;99427.41;1697240;83;21154;-75
2022/02/08 06:11:35;;;;;;;23.73;20.50;;;;;;;0.84;81.21;99439.10;1667298;85;21020;-79
2022/02/08 06:14:00;;;;;;;25.77;22.42;;;;;;;0.83;81.25;99436.97;1699366;83;22244;-76
2022/02/08 06:16:29;;;;;;;27.65;23.12;;;;;;;0.82;81.23;99443.55;1707927;83;20997;-79
2022/02/08 06:18:57;;;;;;;33.35;28.83;;;;;;;0.82;81.27;99450.05;1689480;83;20949;-77
2022/02/08 06:21:24;;;;;;;25.05;21.52;;;;;;;0.82;81.31;99450.05;1706478;83;21026;-80
2022/02/08 06:23:51;;;;;;;22.40;19.45;;;;;;;0.84;81.33;99449.04;1662295;85;21607;-80
2022/02/08 06:26:19;;;;;;;27.65;22.62;;;;;;;0.84;81.33;99452.09;1690106;83;21790;-80
2022/02/08 06:28:52;;;;;;;24.47;20.32;;;;;;;0.85;81.31;99465.47;1685871;85;20966;-80
2022/02/08 06:31:14;;;;;;;33.02;26.02;;;;;;;0.83;81.35;99462.13;1683078;84;20973;-80
2022/02/08 06:33:42;;;;;;;23.50;19.57;;;;;;;0.81;81.37;99465.27;1672055;85;21006;-80
2022/02/08 06:36:09;;;;;;;37.10;28.85;;;;;;;0.80;81.39;99481.33;1696862;84;21019;-80
2022/02/08 06:38:35;;;;;;;68.60;42.85;;;;;;;0.82;81.45;99483.84;1713768;83;22245;-80
2022/02/08 06:41:02;;;;;;;31.70;23.77;;;;;;;0.83;81.45;99488.12;1714481;83;20933;-79
2022/02/08 06:43:31;;;;;;;54.73;37.03;;;;;;;0.84;81.50;99494.53;1694437;83;21014;-80
2022/02/08 06:46:00;;;;;;;41.42;28.30;;;;;;;0.87;81.50;99492.25;1671813;84;21512;-80
2022/02/08 06:48:26;;;;;;;23.90;19.15;;;;;;;0.88;81.53;99483.98;1697110;84;20976;-80
2022/02/08 06:50:53;;;;;;;20.45;17.25;;;;;;;0.90;81.54;99498.58;1698714;83;21839;-79
2022/02/08 06:53:19;;;;;;;21.70;17.37;;;;;;;0.89;81.52;99502.56;1668443;85;21076;-80
2022/02/08 06:55:46;;;;;;;40.10;29.98;;;;;;;0.90;81.55;99505.53;1681225;85;21438;-80
2022/02/08 06:58:15;;;;;;;21.02;17.50;;;;;;;0.92;81.57;99516.22;1631917;86;21046;-80
2022/02/08 07:00:44;;;;;;;18.20;15.55;;;;;;;0.94;81.57;99518.73;1628469;86;20971;-80
2022/02/08 07:03:14;;;;;;;40.92;29.90;;;;;;;0.94;81.58;99513.07;1663184;85;22536;-80
2022/02/08 07:05:41;;;;;;;27.62;21.42;;;;;;;0.97;81.62;99518.59;1661968;85;21006;-79
2022/02/08 07:08:09;;;;;;;25.50;20.80;;;;;;;0.99;81.65;99526.69;1662496;85;21089;-80
2022/02/08 07:10:35;;;;;;;20.30;17.15;;;;;;;1.02;81.66;99529.57;1650731;86;20985;-79
2022/02/08 07:13:06;;;;;;;18.85;15.68;;;;;;;1.01;81.66;99530.03;1649877;86;21018;-79
2022/02/08 07:15:32;;;;;;;16.00;13.43;;;;;;;1.01;81.68;99530.03;1636856;85;21883;-80
2022/02/08 07:18:01;;;;;;;19.02;14.70;;;;;;;1.01;81.66;99536.53;1661911;85;20974;-79
2022/02/08 07:20:31;;;;;;;19.10;14.33;;;;;;;1.00;81.66;99538.76;1662921;85;21026;-80
2022/02/08 07:22:57;;;;;;;17.98;13.83;;;;;;;1.01;81.72;99541.73;1662115;85;21076;-85
2022/02/08 07:25:23;;;;;;;50.43;32.58;;;;;;;1.03;81.74;99550.75;1658187;86;21450;-87
2022/02/08 07:27:50;;;;;;;19.85;14.83;;;;;;;1.04;81.74;99554.56;1659353;85;21809;-87
2022/02/08 07:30:16;;;;;;;35.00;24.47;;;;;;;1.05;81.73;99557.53;1663168;86;21114;-82
2022/02/08 07:32:46;;;;;;;41.92;29.27;;;;;;;1.07;81.76;99553.12;1662682;86;20981;-85
2022/02/08 07:38:20;;;;;;;25.27;18.02;;;;;;;1.12;81.73;99561.50;1673807;85;21006;-83
2022/02/08 07:43:02;;;;;;;18.57;16.10;;;;;;;1.18;81.70;99573.81;1663105;85;21596;-85
2022/02/08 07:45:47;;;;;;;11.95;9.60;;;;;;;1.21;81.67;99572.34;1658929;85;21057;-81
2022/02/08 07:48:13;;;;;;;10.13;8.33;;;;;;;1.20;81.61;99579.77;1663128;85;21497;-84
2022/02/08 07:50:41;;;;;;;9.40;7.75;;;;;;;1.21;81.59;99585.34;1637289;86;21029;-83
2022/02/08 07:53:10;;;;;;;10.68;8.63;;;;;;;1.24;81.60;99586.47;1694218;84;22253;-77
2022/02/08 07:55:37;;;;;;;10.43;8.35;;;;;;;1.22;81.58;99586.55;1696309;84;21019;-78
2022/02/08 07:58:04;;;;;;;7.58;6.65;;;;;;;1.22;81.55;99585.72;1670592;84;20972;-77
2022/02/08 08:00:30;;;;;;;8.03;7.15;;;;;;;1.23;81.53;99592.13;1693726;84;21008;-78
2022/02/08 08:02:57;;;;;;;7.70;6.17;;;;;;;1.23;81.55;99602.53;1696630;83;21095;-79
2022/02/08 08:05:23;;;;;;;6.65;5.95;;;;;;;1.26;81.54;99604.16;1681028;84;21823;-79
2022/02/08 08:07:52;;;;;;;6.70;5.83;;;;;;;1.25;81.49;99609.79;1687010;83;21589;-79
2022/02/08 08:10:19;;;;;;;10.40;9.30;;;;;;;1.25;81.46;99609.79;1695912;84;21026;-79
2022/02/08 08:12:50;;;;;;;8.95;7.10;;;;;;;1.27;81.45;99614.48;1695955;84;21063;-79
2022/02/08 08:15:34;;;;;;;6.80;6.10;;;;;;;1.29;81.46;99613.09;1695990;84;21084;-79
2022/02/08 08:17:58;;;;;;;7.00;5.10;;;;;;;1.32;81.45;99623.32;1683665;84;21861;-78
2022/02/08 08:20:20;;;;;;;5.78;4.62;;;;;;;1.32;81.40;99629.83;1687831;84;21047;-78
2022/02/08 08:22:48;;;;;;;6.47;5.03;;;;;;;1.33;81.41;99625.00;1694626;84;20984;-80
2022/02/08 08:25:14;;;;;;;5.80;4.22;;;;;;;1.35;81.41;99627.05;1696541;84;20972;-79
2022/02/08 08:27:41;;;;;;;6.55;4.90;;;;;;;1.36;81.33;99636.56;1696553;84;21004;-76
2022/02/08 08:30:09;;;;;;;6.58;4.67;;;;;;;1.37;81.32;99644.28;1696518;83;21783;-78
2022/02/08 08:32:39;;;;;;;4.90;3.98;;;;;;;1.38;81.34;99645.13;1693553;83;20875;-77
2022/02/08 08:35:10;;;;;;;5.72;4.30;;;;;;;1.38;81.32;99653.77;1688838;84;21026;-78
2022/02/08 08:37:42;;;;;;;8.88;6.12;;;;;;;1.39;81.28;99661.11;1694547;83;21040;-78
2022/02/08 08:40:18;;;;;;;5.70;3.90;;;;;;;1.39;81.24;99667.61;1709706;84;20971;-77
2022/02/08 08:42:49;;;;;;;22.45;16.12;;;;;;;1.38;81.18;99671.98;1698092;83;21834;-76
2022/02/08 08:50:55;;;;;;;5.78;3.42;;;;;;;1.43;81.06;99679.53;1718163;83;21001;-79
2022/02/08 08:53:12;;;;;;;5.87;3.67;;;;;;;1.46;81.05;99684.59;1694409;83;21015;-79
2022/02/08 08:55:39;;;;;;;15.55;10.50;;;;;;;1.49;81.01;99686.18;1698309;83;21784;-78
2022/02/08 08:58:06;;;;;;;15.55;10.23;;;;;;;1.51;80.85;99694.74;1700724;84;20945;-80
2022/02/08 09:00:33;;;;;;;10.03;5.92;;;;;;;1.52;80.83;99697.26;1690041;83;20986;-78
2022/02/08 09:02:59;;;;;;;16.57;10.75;;;;;;;1.57;80.79;99694.42;1706799;83;21080;-79
2022/02/08 09:05:26;;;;;;;12.07;7.70;;;;;;;1.61;80.76;99699.83;1699874;83;20970;-78
2022/02/08 09:07:53;;;;;;;10.10;6.58;;;;;;;1.62;80.61;99703.66;1712033;83;22615;-78
2022/02/08 09:10:25;;;;;;;6.33;4.30;;;;;;;1.65;80.56;99697.47;1709450;83;21040;-80
2022/02/08 09:13:05;;;;;;;4.55;3.17;;;;;;;1.68;80.46;99707.23;1708893;83;21061;-80
2022/02/08 09:15:33;;;;;;;3.77;2.90;;;;;;;1.65;80.21;99705.28;1704350;83;21476;-79
2022/02/08 09:28:28;;;;;;;3.70;2.30;;;;;;;1.73;79.88;99720.83;1715724;83;21024;-74
2022/02/08 09:30:57;;;;;;;3.85;2.45;;;;;;;1.79;79.82;99720.98;1713400;83;21031;-73
2022/02/08 09:33:18;;;;;;;4.30;2.35;;;;;;;1.84;79.76;99720.29;1684411;83;21842;-72
2022/02/08 09:35:47;;;;;;;3.62;2.47;;;;;;;1.86;79.56;99723.64;1683709;84;20993;-78
2022/02/08 09:38:13;;;;;;;4.15;2.37;;;;;;;1.90;79.47;99716.03;1704891;83;20984;-78
2022/02/08 09:40:40;;;;;;;3.98;2.50;;;;;;;1.91;79.22;99720.31;1694122;83;21028;-76
2022/02/08 09:43:07;;;;;;;3.83;2.47;;;;;;;1.94;79.08;99724.08;1677093;85;21271;-79
2022/02/08 09:45:34;;;;;;;3.52;2.33;;;;;;;1.98;79.05;99725.58;1716248;82;21818;-75
2022/02/08 09:50:36;;;;;;;3.65;2.12;;;;;;;2.15;78.87;99725.13;1685957;84;21080;-80
2022/02/08 09:53:03;;;;;;;4.72;2.87;;;;;;;2.16;78.53;99734.62;1692567;84;20976;-77
2022/02/08 09:55:40;;;;;;;5.12;2.20;;;;;;;2.17;78.35;99735.83;1677350;84;21031;-76
2022/02/08 09:58:08;;;;;;;3.65;2.10;;;;;;;2.24;78.35;99745.46;1689889;83;22506;-75
2022/02/08 10:00:37;;;;;;;3.30;2.20;;;;;;;2.33;78.33;99745.42;1714440;83;20961;-79
2022/02/08 10:03:11;;;;;;;4.30;2.20;;;;;;;2.40;78.15;99741.05;1712334;83;21005;-79
2022/02/08 10:05:44;;;;;;;3.72;2.45;;;;;;;2.42;77.83;99738.39;1649842;86;21072;-76
2022/02/08 10:08:12;;;;;;;3.17;2.30;;;;;;;2.49;77.88;99744.45;1689298;83;21059;-75
2022/02/08 10:10:39;;;;;;;3.92;2.20;;;;;;;2.56;77.66;99741.05;1655962;85;21823;-77
2022/02/08 10:23:56;;;;;;;4.37;2.27;;;;;;;2.62;76.56;99745.09;1685441;85;21831;-78
2022/02/08 10:26:39;;;;;;;4.17;2.62;;;;;;;2.57;75.85;99749.24;1684484;85;20977;-77
2022/02/08 10:29:01;;;;;;;5.28;2.72;;;;;;;2.56;75.83;99752.31;1656691;85;21056;-76
2022/02/08 10:31:47;;;;;;;3.77;2.47;;;;;;;2.60;75.90;99745.15;1683627;85;20972;-77
2022/02/08 10:39:26;;;;;;;4.12;2.62;;;;;;;2.72;75.38;99750.99;1628568;88;21414;-74
2022/02/08 10:41:52;;;;;;;3.80;2.58;;;;;;;2.74;75.16;99756.12;1665733;85;20991;-76
2022/02/08 10:44:19;;;;;;;4.25;2.80;;;;;;;2.78;75.04;99750.63;1683460;85;21031;-79
2022/02/08 10:46:45;;;;;;;3.87;2.80;;;;;;;2.83;74.80;99752.98;1692037;84;21068;-76
2022/02/08 10:49:14;;;;;;;4.00;2.17;;;;;;;2.90;74.86;99760.84;1664409;84;22334;-77
2022/02/08 10:51:48;;;;;;;3.58;2.10;;;;;;;2.95;74.20;99756.64;1660400;84;21016;-77
2022/02/08 10:54:34;;;;;;;4.17;2.27;;;;;;;2.96;73.85;99760.94;1701974;83;20967;-77
2022/02/08 10:57:01;;;;;;;4.90;2.17;;;;;;;2.98;73.82;99761.21;1682437;84;20970;-72
2022/02/08 10:59:29;;;;;;;4.17;2.65;;;;;;;3.03;73.76;99764.87;1700143;83;21428;-73
2022/02/08 11:02:06;;;;;;;5.37;2.35;;;;;;;3.03;73.36;99760.96;1685054;85;21852;-73
2022/02/08 11:04:47;;;;;;;4.08;2.30;;;;;;;3.03;73.30;99756.58;1711855;83;20966;-73
2022/02/08 11:07:17;;;;;;;4.10;2.25;;;;;;;3.06;73.11;99762.91;1711901;83;20998;-73
2022/02/08 11:09:53;;;;;;;3.30;2.00;;;;;;;3.07;73.03;99762.45;1711187;83;20978;-73
2022/02/08 11:12:25;;;;;;;4.45;2.65;;;;;;;3.12;73.12;99769.09;1686758;83;21037;-73
2022/02/08 11:15:41;;;;;;;4.03;2.55;;;;;;;3.14;72.87;99769.00;1712803;83;21820;-73
2022/02/08 11:17:59;;;;;;;3.90;2.30;;;;;;;3.18;72.96;99770.95;1693101;83;20970;-72
2022/02/08 11:22:44;;;;;;;2.92;2.08;;;;;;;3.19;72.39;99770.89;1701121;83;20982;-72
2022/02/08 11:25:21;;;;;;;4.12;2.20;;;;;;;3.15;72.00;99763.69;1679843;85;20961;-73
2022/02/08 11:27:50;;;;;;;3.55;2.05;;;;;;;3.16;71.93;99774.96;1682898;84;22713;-73
2022/02/08 11:30:19;;;;;;;3.47;2.22;;;;;;;3.19;71.76;99773.50;1683961;85;20897;-72
2022/02/08 11:33:03;;;;;;;2.85;2.12;;;;;;;3.16;71.40;99769.74;1681976;85;20986;-72
2022/02/08 11:46:36;;;;;;;4.15;2.00;;;;;;;3.16;71.07;99779.72;1665569;86;21027;-73
2022/02/08 11:52:05;;;;;;;2.75;1.55;;;;;;;3.12;70.85;99786.52;1692577;84;21024;-73
2022/02/08 11:54:43;;;;;;;4.40;2.17;;;;;;;3.12;70.91;99782.61;1683866;84;22864;-73
2022/02/08 12:02:35;;;;;;;3.00;1.80;;;;;;;3.23;70.55;99792.41;1684866;84;21056;-73
2022/02/08 12:07:37;;;;;;;4.05;1.70;;;;;;;3.23;69.97;99792.41;1685187;85;21861;-74
2022/02/08 12:10:23;;;;;;;2.52;1.50;;;;;;;3.20;69.73;99787.39;1685107;85;21026;-73
2022/02/08 12:52:15;;;;;;;2.60;1.47;;;;;;;2.61;66.52;99853.75;1685034;85;21012;-75
2022/02/08 12:54:07;;;;;;;2.45;1.30;;;;;;;2.62;66.50;99845.00;1686662;84;21008;-72
2022/02/08 12:56:39;;;;;;;3.47;1.15;;;;;;;2.65;66.11;99851.80;1692490;83;21459;-73
2022/02/08 13:04:19;;;;;;;2.58;1.10;;;;;;;2.65;65.48;99860.47;1684434;84;20990;-75
2022/02/08 14:14:53;;;;;;;3.37;1.35;;;;;;;2.52;60.93;99929.39;1712508;83;21552;-73
2022/02/08 14:25:43;;;;;;;3.25;1.30;;;;;;;2.77;59.22;99947.14;1713063;83;21045;-74
2022/02/08 14:31:00;;;;;;;2.30;1.02;;;;;;;2.64;58.71;99951.34;1710850;83;21041;-75
2022/02/08 14:36:06;;;;;;;3.50;1.22;;;;;;;2.52;58.70;99959.83;1699511;84;21821;-75
2022/02/08 14:58:22;;;;;;;3.05;1.20;;;;;;;1.98;57.87;99967.80;1692184;84;21027;-75
2022/02/08 15:08:10;;;;;;;3.27;1.10;;;;;;;1.87;57.32;99972.71;1692435;84;21048;-74
2022/02/08 15:10:55;;;;;;;3.58;1.40;;;;;;;1.84;56.97;99975.94;1701426;83;21038;-74
2022/02/08 15:13:01;;;;;;;2.05;1.05;;;;;;;1.80;57.12;99978.29;1705171;83;21006;-75
2022/02/08 15:17:55;;;;;;;2.37;1.32;;;;;;;1.83;57.29;99991.15;1713151;83;21084;-72
2022/02/08 15:20:23;;;;;;;3.08;1.22;;;;;;;1.81;57.43;99991.23;1640988;86;21081;-74
2022/02/08 15:22:50;;;;;;;2.00;1.10;;;;;;;1.82;57.30;99988.16;1655363;85;21685;-74
2022/02/08 15:25:17;;;;;;;2.45;1.20;;;;;;;1.82;57.27;99986.86;1682697;85;20936;-76
2022/02/08 15:27:46;;;;;;;2.42;1.50;;;;;;;1.80;57.26;99991.31;1686168;83;22255;-74
2022/02/08 15:30:13;;;;;;;2.08;1.25;;;;;;;1.80;57.40;99998.66;1709551;83;21537;-72
2022/02/08 15:32:40;;;;;;;2.55;1.42;;;;;;;1.80;57.54;100003.03;1692133;84;21054;-72
2022/02/08 15:35:08;;;;;;;3.50;1.40;;;;;;;1.77;57.33;100001.89;1690505;84;21044;-71
2022/02/08 15:37:35;;;;;;;2.62;1.50;;;;;;;1.74;57.48;99997.68;1684283;83;21050;-72
2022/02/08 15:40:05;;;;;;;2.33;1.60;;;;;;;1.72;57.59;100008.14;1693414;84;21794;-72
2022/02/08 15:42:34;;;;;;;5.33;1.67;;;;;;;1.71;57.72;100011.67;1665794;84;21466;-70
2022/02/08 15:45:08;;;;;;;3.77;1.50;;;;;;;1.69;57.64;100008.30;1713927;83;20990;-70
2022/02/08 15:47:32;;;;;;;2.22;1.30;;;;;;;1.68;57.57;100008.38;1685692;84;21061;-71
2022/02/08 15:50:06;;;;;;;2.17;1.20;;;;;;;1.66;57.60;100010.22;1713580;83;21078;-72
2022/02/08 15:52:56;;;;;;;3.98;1.50;;;;;;;1.66;57.62;100009.77;1712774;83;22233;-70
2022/02/08 15:55:00;;;;;;;3.40;1.25;;;;;;;1.64;57.47;100019.41;1710169;83;21668;-70
2022/02/08 16:05:57;;;;;;;4.37;1.37;;;;;;;1.61;57.30;100030.41;1695194;83;22278;-75
2022/02/08 16:08:16;;;;;;;3.27;1.50;;;;;;;1.60;57.46;100028.27;1713319;83;21052;-73
2022/02/08 16:10:52;;;;;;;3.08;1.25;;;;;;;1.58;57.51;100022.30;1654936;85;21021;-77
2022/02/08 16:18:17;;;;;;;3.45;1.40;;;;;;;1.57;57.51;100026.28;1663688;85;22427;-71
2022/02/08 16:23:34;;;;;;;3.52;1.40;;;;;;;1.56;57.27;100031.11;1700473;84;21415;-71
2022/02/08 16:26:04;;;;;;;4.90;1.60;;;;;;;1.54;57.08;100032.45;1690015;84;21056;-75
2022/02/08 16:28:39;;;;;;;3.92;1.85;;;;;;;1.54;57.10;100038.97;1686871;84;21043;-75
2022/02/08 16:50:52;;;;;;;3.17;1.50;;;;;;;1.57;57.44;100049.25;1679991;84;20992;-71
2022/02/08 17:00:45;;;;;;;3.85;1.50;;;;;;;1.54;57.18;100045.47;1700560;84;21004;-73
2022/02/08 17:03:11;;;;;;;3.25;1.42;;;;;;;1.54;57.45;100051.14;1700186;84;21043;-77
2022/02/08 17:05:38;;;;;;;2.17;1.50;;;;;;;1.52;57.25;100049.91;1698746;84;21084;-71
2022/02/08 17:08:05;;;;;;;3.40;1.82;;;;;;;1.52;57.23;100052.52;1708652;83;21097;-75
2022/02/08 17:10:37;;;;;;;3.00;1.90;;;;;;;1.52;57.18;100052.52;1694129;83;21758;-73
2022/02/08 17:45:44;;;;;;;4.08;1.85;;;;;;;1.55;57.76;100062.80;1677824;84;21000;-73
2022/02/08 17:47:50;;;;;;;3.47;1.72;;;;;;;1.54;57.86;100062.39;1683456;84;21058;-80
2022/02/08 17:50:18;;;;;;;4.28;1.90;;;;;;;1.53;57.93;100066.38;1690959;84;21861;-72